sensor_id;sensor_type;location;lat;lon;timestamp;temperature;humidity
32640;DHT22;19049;52.524;11.468;2022-11-04T00:01:15;12.10;86.10
32640;DHT22;19049;52.524;11.468;2022-11-04T00:03:41;12.00;86.10
32640;DHT22;19049;52.524;11.468;2022-11-04T00:06:07;12.00;86.10
32640;DHT22;19049;52.524;11.468;2022-11-04T00:08:33;12.00;86.10
32640;DHT22;19049;52.524;11.468;2022-11-04T00:10:59;12.00;86.30
32640;DHT22;19049;52.524;11.468;2022-11-04T00:13:45;12.00;86.50
32640;DHT22;19049;52.524;11.468;2022-11-04T00:16:11;11.90;86.30
32640;DHT22;19049;52.524;11.468;2022-11-04T00:18:56;11.90;86.30
32640;DHT22;19049;52.524;11.468;2022-11-04T00:21:22;11.90;86.50
32640;DHT22;19049;52.524;11.468;2022-11-04T00:24:09;11.90;86.50
32640;DHT22;19049;52.524;11.468;2022-11-04T00:26:54;11.90;86.60
32640;DHT22;19049;52.524;11.468;2022-11-04T00:29:38;11.90;86.60
32640;DHT22;19049;52.524;11.468;2022-11-04T00:32:04;11.90;86.70
32640;DHT22;19049;52.524;11.468;2022-11-04T00:34:48;11.90;86.60
32640;DHT22;19049;52.524;11.468;2022-11-04T00:37:14;11.90;86.80
32640;DHT22;19049;52.524;11.468;2022-11-04T00:39:39;11.90;87.00
32640;DHT22;19049;52.524;11.468;2022-11-04T00:42:05;11.90;86.80
32640;DHT22;19049;52.524;11.468;2022-11-04T00:44:31;11.90;87.10
32640;DHT22;19049;52.524;11.468;2022-11-04T00:46:56;11.80;87.90
32640;DHT22;19049;52.524;11.468;2022-11-04T00:49:22;11.80;87.10
32640;DHT22;19049;52.524;11.468;2022-11-04T00:51:48;11.80;87.30
32640;DHT22;19049;52.524;11.468;2022-11-04T00:54:14;11.80;87.40
32640;DHT22;19049;52.524;11.468;2022-11-04T00:56:40;11.70;87.20
32640;DHT22;19049;52.524;11.468;2022-11-04T00:59:06;11.70;87.40
32640;DHT22;19049;52.524;11.468;2022-11-04T01:01:32;11.70;87.90
32640;DHT22;19049;52.524;11.468;2022-11-04T01:03:58;11.70;88.00
32640;DHT22;19049;52.524;11.468;2022-11-04T01:06:27;11.70;88.20
32640;DHT22;19049;52.524;11.468;2022-11-04T01:08:57;11.60;88.10
32640;DHT22;19049;52.524;11.468;2022-11-04T01:11:26;11.60;88.50
32640;DHT22;19049;52.524;11.468;2022-11-04T01:13:57;11.50;88.50
32640;DHT22;19049;52.524;11.468;2022-11-04T01:16:24;11.50;89.10
32640;DHT22;19049;52.524;11.468;2022-11-04T01:18:50;11.50;89.40
32640;DHT22;19049;52.524;11.468;2022-11-04T01:21:16;11.50;89.20
32640;DHT22;19049;52.524;11.468;2022-11-04T01:23:44;11.50;89.70
32640;DHT22;19049;52.524;11.468;2022-11-04T01:26:18;11.40;89.60
32640;DHT22;19049;52.524;11.468;2022-11-04T01:28:44;11.40;90.20
32640;DHT22;19049;52.524;11.468;2022-11-04T01:31:16;11.40;90.10
32640;DHT22;19049;52.524;11.468;2022-11-04T01:33:42;11.30;90.20
32640;DHT22;19049;52.524;11.468;2022-11-04T01:36:09;11.40;90.30
32640;DHT22;19049;52.524;11.468;2022-11-04T01:38:38;11.30;90.50
32640;DHT22;19049;52.524;11.468;2022-11-04T01:41:04;11.30;90.50
32640;DHT22;19049;52.524;11.468;2022-11-04T01:43:55;11.30;90.80
32640;DHT22;19049;52.524;11.468;2022-11-04T01:49:29;11.30;90.90
32640;DHT22;19049;52.524;11.468;2022-11-04T01:52:03;11.30;91.30
32640;DHT22;19049;52.524;11.468;2022-11-04T01:54:30;11.20;91.10
32640;DHT22;19049;52.524;11.468;2022-11-04T01:56:57;11.20;91.10
32640;DHT22;19049;52.524;11.468;2022-11-04T01:59:27;11.20;91.20
32640;DHT22;19049;52.524;11.468;2022-11-04T02:01:54;11.20;91.30
32640;DHT22;19049;52.524;11.468;2022-11-04T02:04:20;11.20;91.30
32640;DHT22;19049;52.524;11.468;2022-11-04T02:07:00;11.20;91.30
32640;DHT22;19049;52.524;11.468;2022-11-04T02:09:28;11.20;91.60
32640;DHT22;19049;52.524;11.468;2022-11-04T02:11:55;11.20;91.60
32640;DHT22;19049;52.524;11.468;2022-11-04T02:14:40;11.20;91.80
32640;DHT22;19049;52.524;11.468;2022-11-04T02:33:56;11.20;92.20
32640;DHT22;19049;52.524;11.468;2022-11-04T02:36:55;11.20;92.30
32640;DHT22;19049;52.524;11.468;2022-11-04T02:39:50;11.20;92.10
32640;DHT22;19049;52.524;11.468;2022-11-04T02:43:06;11.20;92.20
32640;DHT22;19049;52.524;11.468;2022-11-04T02:47:53;11.30;92.10
32640;DHT22;19049;52.524;11.468;2022-11-04T02:50:30;11.30;92.10
32640;DHT22;19049;52.524;11.468;2022-11-04T02:53:02;11.30;92.10
32640;DHT22;19049;52.524;11.468;2022-11-04T02:55:37;11.30;92.20
32640;DHT22;19049;52.524;11.468;2022-11-04T02:58:08;11.30;92.30
32640;DHT22;19049;52.524;11.468;2022-11-04T03:00:36;11.30;92.30
32640;DHT22;19049;52.524;11.468;2022-11-04T03:03:08;11.30;92.40
32640;DHT22;19049;52.524;11.468;2022-11-04T03:05:38;11.30;92.40
32640;DHT22;19049;52.524;11.468;2022-11-04T03:08:34;11.30;92.40
32640;DHT22;19049;52.524;11.468;2022-11-04T03:11:10;11.30;92.60
32640;DHT22;19049;52.524;11.468;2022-11-04T03:13:48;11.40;92.60
32640;DHT22;19049;52.524;11.468;2022-11-04T03:16:18;11.40;92.90
32640;DHT22;19049;52.524;11.468;2022-11-04T03:21:33;11.40;92.90
32640;DHT22;19049;52.524;11.468;2022-11-04T03:24:00;11.40;92.80
32640;DHT22;19049;52.524;11.468;2022-11-04T03:26:36;11.50;92.80
32640;DHT22;19049;52.524;11.468;2022-11-04T03:29:15;11.50;92.90
32640;DHT22;19049;52.524;11.468;2022-11-04T03:31:52;11.50;92.90
32640;DHT22;19049;52.524;11.468;2022-11-04T03:34:21;11.50;92.80
32640;DHT22;19049;52.524;11.468;2022-11-04T03:36:46;11.50;92.80
32640;DHT22;19049;52.524;11.468;2022-11-04T03:39:12;11.60;92.80
32640;DHT22;19049;52.524;11.468;2022-11-04T03:41:43;11.60;92.80
32640;DHT22;19049;52.524;11.468;2022-11-04T03:44:09;11.60;92.90
32640;DHT22;19049;52.524;11.468;2022-11-04T03:46:35;11.60;92.80
32640;DHT22;19049;52.524;11.468;2022-11-04T03:49:02;11.60;92.80
32640;DHT22;19049;52.524;11.468;2022-11-04T03:51:28;11.60;93.00
32640;DHT22;19049;52.524;11.468;2022-11-04T03:53:54;11.60;92.90
32640;DHT22;19049;52.524;11.468;2022-11-04T04:04:04;11.60;93.00
32640;DHT22;19049;52.524;11.468;2022-11-04T04:06:35;11.60;93.00
32640;DHT22;19049;52.524;11.468;2022-11-04T04:09:21;11.60;93.30
32640;DHT22;19049;52.524;11.468;2022-11-04T04:12:02;11.60;93.30
32640;DHT22;19049;52.524;11.468;2022-11-04T04:14:39;11.50;93.30
32640;DHT22;19049;52.524;11.468;2022-11-04T04:20:03;11.50;93.30
32640;DHT22;19049;52.524;11.468;2022-11-04T04:22:47;11.50;93.30
32640;DHT22;19049;52.524;11.468;2022-11-04T04:25:15;11.50;93.40
32640;DHT22;19049;52.524;11.468;2022-11-04T04:28:00;11.50;93.40
32640;DHT22;19049;52.524;11.468;2022-11-04T04:30:27;11.40;93.60
32640;DHT22;19049;52.524;11.468;2022-11-04T04:33:02;11.40;93.50
32640;DHT22;19049;52.524;11.468;2022-11-04T04:35:38;11.40;93.70
32640;DHT22;19049;52.524;11.468;2022-11-04T04:38:19;11.40;93.70
32640;DHT22;19049;52.524;11.468;2022-11-04T04:41:30;11.40;93.80
32640;DHT22;19049;52.524;11.468;2022-11-04T04:44:27;11.40;93.80
32640;DHT22;19049;52.524;11.468;2022-11-04T04:47:17;11.40;93.90
32640;DHT22;19049;52.524;11.468;2022-11-04T04:52:16;11.40;94.00
32640;DHT22;19049;52.524;11.468;2022-11-04T04:54:42;11.40;94.00
32640;DHT22;19049;52.524;11.468;2022-11-04T04:57:09;11.40;94.20
32640;DHT22;19049;52.524;11.468;2022-11-04T04:59:35;11.40;94.10
32640;DHT22;19049;52.524;11.468;2022-11-04T05:02:00;11.40;94.10
32640;DHT22;19049;52.524;11.468;2022-11-04T05:04:26;11.40;94.10
32640;DHT22;19049;52.524;11.468;2022-11-04T05:06:52;11.40;94.20
32640;DHT22;19049;52.524;11.468;2022-11-04T05:09:17;11.40;94.20
32640;DHT22;19049;52.524;11.468;2022-11-04T05:11:43;11.50;94.30
32640;DHT22;19049;52.524;11.468;2022-11-04T05:14:09;11.50;94.40
32640;DHT22;19049;52.524;11.468;2022-11-04T05:16:34;11.50;94.40
32640;DHT22;19049;52.524;11.468;2022-11-04T05:19:00;11.50;94.60
32640;DHT22;19049;52.524;11.468;2022-11-04T05:21:25;11.50;94.60
32640;DHT22;19049;52.524;11.468;2022-11-04T05:23:51;11.50;94.50
32640;DHT22;19049;52.524;11.468;2022-11-04T05:26:17;11.50;94.50
32640;DHT22;19049;52.524;11.468;2022-11-04T05:28:43;11.50;94.50
32640;DHT22;19049;52.524;11.468;2022-11-04T05:31:08;11.50;94.50
32640;DHT22;19049;52.524;11.468;2022-11-04T05:33:34;11.50;94.50
32640;DHT22;19049;52.524;11.468;2022-11-04T05:36:11;11.50;94.50
32640;DHT22;19049;52.524;11.468;2022-11-04T05:38:37;11.50;95.00
32640;DHT22;19049;52.524;11.468;2022-11-04T05:41:07;11.50;94.60
32640;DHT22;19049;52.524;11.468;2022-11-04T05:43:35;11.50;94.60
32640;DHT22;19049;52.524;11.468;2022-11-04T05:46:04;11.50;94.60
32640;DHT22;19049;52.524;11.468;2022-11-04T05:48:29;11.50;94.60
32640;DHT22;19049;52.524;11.468;2022-11-04T05:50:55;11.50;94.60
32640;DHT22;19049;52.524;11.468;2022-11-04T05:53:21;11.50;94.70
32640;DHT22;19049;52.524;11.468;2022-11-04T05:55:58;11.50;94.60
32640;DHT22;19049;52.524;11.468;2022-11-04T05:58:26;11.50;94.60
32640;DHT22;19049;52.524;11.468;2022-11-04T06:00:52;11.50;94.60
32640;DHT22;19049;52.524;11.468;2022-11-04T06:03:17;11.50;94.60
32640;DHT22;19049;52.524;11.468;2022-11-04T06:05:43;11.50;94.70
32640;DHT22;19049;52.524;11.468;2022-11-04T06:08:08;11.50;94.70
32640;DHT22;19049;52.524;11.468;2022-11-04T06:10:34;11.50;94.60
32640;DHT22;19049;52.524;11.468;2022-11-04T06:13:02;11.50;94.60
32640;DHT22;19049;52.524;11.468;2022-11-04T06:15:27;11.50;94.60
32640;DHT22;19049;52.524;11.468;2022-11-04T06:17:53;11.50;94.80
32640;DHT22;19049;52.524;11.468;2022-11-04T06:20:21;11.40;94.80
32640;DHT22;19049;52.524;11.468;2022-11-04T06:22:49;11.40;94.80
32640;DHT22;19049;52.524;11.468;2022-11-04T06:25:25;11.40;94.80
32640;DHT22;19049;52.524;11.468;2022-11-04T06:27:50;11.40;94.80
32640;DHT22;19049;52.524;11.468;2022-11-04T06:30:25;11.40;94.90
32640;DHT22;19049;52.524;11.468;2022-11-04T06:32:51;11.40;95.00
32640;DHT22;19049;52.524;11.468;2022-11-04T06:35:17;11.40;95.10
32640;DHT22;19049;52.524;11.468;2022-11-04T06:37:45;11.50;95.10
32640;DHT22;19049;52.524;11.468;2022-11-04T06:40:15;11.50;95.20
32640;DHT22;19049;52.524;11.468;2022-11-04T06:42:41;11.50;95.20
32640;DHT22;19049;52.524;11.468;2022-11-04T06:45:16;11.50;95.20
32640;DHT22;19049;52.524;11.468;2022-11-04T06:47:41;11.50;95.30
32640;DHT22;19049;52.524;11.468;2022-11-04T06:50:07;11.50;95.40
32640;DHT22;19049;52.524;11.468;2022-11-04T06:52:33;11.60;95.60
32640;DHT22;19049;52.524;11.468;2022-11-04T06:54:59;11.60;95.60
32640;DHT22;19049;52.524;11.468;2022-11-04T06:57:24;11.60;95.90
32640;DHT22;19049;52.524;11.468;2022-11-04T06:59:50;11.70;95.60
32640;DHT22;19049;52.524;11.468;2022-11-04T07:02:18;11.70;95.50
32640;DHT22;19049;52.524;11.468;2022-11-04T07:04:46;11.70;95.40
32640;DHT22;19049;52.524;11.468;2022-11-04T07:07:11;11.80;95.40
32640;DHT22;19049;52.524;11.468;2022-11-04T07:09:50;11.80;95.40
32640;DHT22;19049;52.524;11.468;2022-11-04T07:12:21;11.80;95.30
32640;DHT22;19049;52.524;11.468;2022-11-04T07:14:49;11.80;95.20
32640;DHT22;19049;52.524;11.468;2022-11-04T07:17:23;11.90;95.20
32640;DHT22;19049;52.524;11.468;2022-11-04T07:19:48;11.80;95.10
32640;DHT22;19049;52.524;11.468;2022-11-04T07:22:14;11.80;95.10
32640;DHT22;19049;52.524;11.468;2022-11-04T07:24:40;11.80;95.00
32640;DHT22;19049;52.524;11.468;2022-11-04T07:27:08;11.80;95.10
32640;DHT22;19049;52.524;11.468;2022-11-04T07:29:33;11.80;95.10
32640;DHT22;19049;52.524;11.468;2022-11-04T07:31:59;11.80;95.10
32640;DHT22;19049;52.524;11.468;2022-11-04T07:34:26;11.80;95.10
32640;DHT22;19049;52.524;11.468;2022-11-04T07:36:53;11.80;95.20
32640;DHT22;19049;52.524;11.468;2022-11-04T07:39:19;11.80;95.20
32640;DHT22;19049;52.524;11.468;2022-11-04T07:41:47;11.80;95.20
32640;DHT22;19049;52.524;11.468;2022-11-04T07:44:12;11.80;95.30
32640;DHT22;19049;52.524;11.468;2022-11-04T07:46:56;11.90;95.40
32640;DHT22;19049;52.524;11.468;2022-11-04T07:49:21;11.90;95.60
32640;DHT22;19049;52.524;11.468;2022-11-04T07:51:47;12.00;95.80
32640;DHT22;19049;52.524;11.468;2022-11-04T07:54:13;12.20;95.90
32640;DHT22;19049;52.524;11.468;2022-11-04T07:56:38;12.30;95.80
32640;DHT22;19049;52.524;11.468;2022-11-04T07:59:05;12.40;95.80
32640;DHT22;19049;52.524;11.468;2022-11-04T08:01:31;12.60;95.80
32640;DHT22;19049;52.524;11.468;2022-11-04T08:03:58;12.70;95.60
32640;DHT22;19049;52.524;11.468;2022-11-04T08:06:26;12.70;95.50
32640;DHT22;19049;52.524;11.468;2022-11-04T08:08:52;12.80;95.40
32640;DHT22;19049;52.524;11.468;2022-11-04T08:11:22;12.90;95.20
32640;DHT22;19049;52.524;11.468;2022-11-04T08:13:53;12.90;95.10
32640;DHT22;19049;52.524;11.468;2022-11-04T08:16:23;12.90;95.00
32640;DHT22;19049;52.524;11.468;2022-11-04T08:18:50;12.90;94.90
32640;DHT22;19049;52.524;11.468;2022-11-04T08:21:20;12.90;94.80
32640;DHT22;19049;52.524;11.468;2022-11-04T08:23:46;12.90;94.80
32640;DHT22;19049;52.524;11.468;2022-11-04T08:26:15;12.90;94.70
32640;DHT22;19049;52.524;11.468;2022-11-04T08:28:42;12.90;94.60
32640;DHT22;19049;52.524;11.468;2022-11-04T08:31:11;12.90;94.60
32640;DHT22;19049;52.524;11.468;2022-11-04T08:33:38;12.90;94.60
32640;DHT22;19049;52.524;11.468;2022-11-04T08:36:08;12.90;94.60
32640;DHT22;19049;52.524;11.468;2022-11-04T08:38:35;12.90;94.70
32640;DHT22;19049;52.524;11.468;2022-11-04T08:41:02;12.90;94.60
32640;DHT22;19049;52.524;11.468;2022-11-04T08:43:28;12.90;94.70
32640;DHT22;19049;52.524;11.468;2022-11-04T08:45:56;12.90;94.70
32640;DHT22;19049;52.524;11.468;2022-11-04T08:48:22;13.00;94.70
32640;DHT22;19049;52.524;11.468;2022-11-04T08:50:50;13.10;94.50
32640;DHT22;19049;52.524;11.468;2022-11-04T08:53:16;13.10;94.50
32640;DHT22;19049;52.524;11.468;2022-11-04T08:55:42;13.10;94.20
32640;DHT22;19049;52.524;11.468;2022-11-04T08:58:08;13.10;94.30
32640;DHT22;19049;52.524;11.468;2022-11-04T09:00:33;13.10;94.20
32640;DHT22;19049;52.524;11.468;2022-11-04T09:03:02;13.10;94.00
32640;DHT22;19049;52.524;11.468;2022-11-04T09:05:28;13.10;94.10
32640;DHT22;19049;52.524;11.468;2022-11-04T09:07:54;13.10;94.10
32640;DHT22;19049;52.524;11.468;2022-11-04T09:10:20;13.10;94.20
32640;DHT22;19049;52.524;11.468;2022-11-04T09:12:46;13.10;94.20
32640;DHT22;19049;52.524;11.468;2022-11-04T09:15:14;13.10;94.20
32640;DHT22;19049;52.524;11.468;2022-11-04T09:17:39;13.10;94.20
32640;DHT22;19049;52.524;11.468;2022-11-04T09:20:06;13.10;94.20
32640;DHT22;19049;52.524;11.468;2022-11-04T09:22:31;13.20;94.10
32640;DHT22;19049;52.524;11.468;2022-11-04T09:24:57;13.20;94.00
32640;DHT22;19049;52.524;11.468;2022-11-04T09:27:23;13.20;94.20
32640;DHT22;19049;52.524;11.468;2022-11-04T09:29:49;13.20;94.20
32640;DHT22;19049;52.524;11.468;2022-11-04T09:32:15;13.30;94.10
32640;DHT22;19049;52.524;11.468;2022-11-04T09:34:40;13.30;93.90
32640;DHT22;19049;52.524;11.468;2022-11-04T09:37:06;13.30;93.50
32640;DHT22;19049;52.524;11.468;2022-11-04T09:39:32;13.40;93.50
32640;DHT22;19049;52.524;11.468;2022-11-04T09:42:24;13.40;93.70
32640;DHT22;19049;52.524;11.468;2022-11-04T09:45:10;13.40;93.20
32640;DHT22;19049;52.524;11.468;2022-11-04T09:47:41;13.40;92.70
32640;DHT22;19049;52.524;11.468;2022-11-04T09:50:24;13.50;93.20
32640;DHT22;19049;52.524;11.468;2022-11-04T09:55:31;13.40;92.60
32640;DHT22;19049;52.524;11.468;2022-11-04T09:57:58;13.40;92.60
32640;DHT22;19049;52.524;11.468;2022-11-04T10:00:25;13.40;92.80
32640;DHT22;19049;52.524;11.468;2022-11-04T10:05:36;13.40;93.00
32640;DHT22;19049;52.524;11.468;2022-11-04T10:11:17;13.50;92.40
32640;DHT22;19049;52.524;11.468;2022-11-04T10:16:29;13.50;92.30
32640;DHT22;19049;52.524;11.468;2022-11-04T10:19:15;13.60;92.30
32640;DHT22;19049;52.524;11.468;2022-11-04T10:22:00;13.60;92.30
32640;DHT22;19049;52.524;11.468;2022-11-04T10:26:58;13.70;92.30
32640;DHT22;19049;52.524;11.468;2022-11-04T10:29:26;13.80;92.30
32640;DHT22;19049;52.524;11.468;2022-11-04T10:31:57;13.80;92.00
32640;DHT22;19049;52.524;11.468;2022-11-04T10:34:38;13.80;91.90
32640;DHT22;19049;52.524;11.468;2022-11-04T10:37:12;13.80;91.60
32640;DHT22;19049;52.524;11.468;2022-11-04T10:39:46;13.90;91.50
32640;DHT22;19049;52.524;11.468;2022-11-04T10:42:16;13.90;91.80
32640;DHT22;19049;52.524;11.468;2022-11-04T10:44:44;13.90;91.90
32640;DHT22;19049;52.524;11.468;2022-11-04T10:52:36;13.90;91.60
32640;DHT22;19049;52.524;11.468;2022-11-04T10:55:04;14.00;91.50
32640;DHT22;19049;52.524;11.468;2022-11-04T10:57:36;14.00;91.80
32640;DHT22;19049;52.524;11.468;2022-11-04T11:00:03;14.00;91.70
32640;DHT22;19049;52.524;11.468;2022-11-04T11:07:49;14.00;90.00
32640;DHT22;19049;52.524;11.468;2022-11-04T11:12:58;14.00;90.80
32640;DHT22;19049;52.524;11.468;2022-11-04T11:15:28;14.00;90.70
32640;DHT22;19049;52.524;11.468;2022-11-04T11:18:23;14.10;90.70
32640;DHT22;19049;52.524;11.468;2022-11-04T11:21:12;14.10;90.60
32640;DHT22;19049;52.524;11.468;2022-11-04T11:26:18;14.10;90.60
32640;DHT22;19049;52.524;11.468;2022-11-04T11:29:09;14.10;90.40
32640;DHT22;19049;52.524;11.468;2022-11-04T11:31:37;14.10;87.80
32640;DHT22;19049;52.524;11.468;2022-11-04T11:34:06;14.10;90.50
32640;DHT22;19049;52.524;11.468;2022-11-04T11:36:38;14.10;90.40
32640;DHT22;19049;52.524;11.468;2022-11-04T11:42:04;14.00;90.70
32640;DHT22;19049;52.524;11.468;2022-11-04T11:44:36;14.00;87.60
32640;DHT22;19049;52.524;11.468;2022-11-04T11:50:27;14.00;89.20
32640;DHT22;19049;52.524;11.468;2022-11-04T11:53:17;13.90;88.90
32640;DHT22;19049;52.524;11.468;2022-11-04T11:58:48;13.90;89.50
32640;DHT22;19049;52.524;11.468;2022-11-04T12:01:31;13.90;90.40
32640;DHT22;19049;52.524;11.468;2022-11-04T12:03:58;13.80;87.90
32640;DHT22;19049;52.524;11.468;2022-11-04T12:17:13;13.80;90.00
32640;DHT22;19049;52.524;11.468;2022-11-04T12:19:49;13.80;90.00
32640;DHT22;19049;52.524;11.468;2022-11-04T12:25:18;13.80;89.00
32640;DHT22;19049;52.524;11.468;2022-11-04T12:30:40;13.80;89.60
32640;DHT22;19049;52.524;11.468;2022-11-04T12:33:27;13.70;89.60
32640;DHT22;19049;52.524;11.468;2022-11-04T12:38:55;13.70;88.10
32640;DHT22;19049;52.524;11.468;2022-11-04T12:44:32;13.70;87.60
32640;DHT22;19049;52.524;11.468;2022-11-04T12:47:22;13.70;88.20
32640;DHT22;19049;52.524;11.468;2022-11-04T12:55:56;13.70;88.60
32640;DHT22;19049;52.524;11.468;2022-11-04T13:01:27;13.70;88.10
32640;DHT22;19049;52.524;11.468;2022-11-04T13:04:16;13.70;87.90
32640;DHT22;19049;52.524;11.468;2022-11-04T13:06:53;13.70;88.10
32640;DHT22;19049;52.524;11.468;2022-11-04T13:09:30;13.70;88.30
32640;DHT22;19049;52.524;11.468;2022-11-04T13:12:15;13.70;89.10
32640;DHT22;19049;52.524;11.468;2022-11-04T13:15:32;13.70;88.30
32640;DHT22;19049;52.524;11.468;2022-11-04T13:18:14;13.80;87.40
32640;DHT22;19049;52.524;11.468;2022-11-04T13:23:50;13.80;88.90
32640;DHT22;19049;52.524;11.468;2022-11-04T13:26:17;13.80;88.60
32640;DHT22;19049;52.524;11.468;2022-11-04T13:28:45;13.90;89.10
32640;DHT22;19049;52.524;11.468;2022-11-04T13:31:26;13.90;88.40
32640;DHT22;19049;52.524;11.468;2022-11-04T13:34:06;13.90;87.20
32640;DHT22;19049;52.524;11.468;2022-11-04T13:39:32;14.00;88.00
32640;DHT22;19049;52.524;11.468;2022-11-04T13:44:54;14.00;88.80
32640;DHT22;19049;52.524;11.468;2022-11-04T13:47:28;14.00;88.40
32640;DHT22;19049;52.524;11.468;2022-11-04T13:49:56;14.00;87.50
32640;DHT22;19049;52.524;11.468;2022-11-04T13:52:29;14.10;88.20
32640;DHT22;19049;52.524;11.468;2022-11-04T13:54:56;14.10;88.70
32640;DHT22;19049;52.524;11.468;2022-11-04T13:57:26;14.30;88.80
32640;DHT22;19049;52.524;11.468;2022-11-04T14:02:58;14.80;84.70
32640;DHT22;19049;52.524;11.468;2022-11-04T14:16:38;15.80;84.90
32640;DHT22;19049;52.524;11.468;2022-11-04T14:22:16;16.10;79.90
32640;DHT22;19049;52.524;11.468;2022-11-04T14:24:43;16.10;82.30
32640;DHT22;19049;52.524;11.468;2022-11-04T14:27:32;16.00;81.10
32640;DHT22;19049;52.524;11.468;2022-11-04T14:29:59;15.80;80.40
32640;DHT22;19049;52.524;11.468;2022-11-04T14:32:30;15.60;82.60
32640;DHT22;19049;52.524;11.468;2022-11-04T14:35:06;15.40;82.10
32640;DHT22;19049;52.524;11.468;2022-11-04T14:37:39;15.20;82.80
32640;DHT22;19049;52.524;11.468;2022-11-04T14:40:14;15.10;83.80
32640;DHT22;19049;52.524;11.468;2022-11-04T14:42:54;14.90;83.80
32640;DHT22;19049;52.524;11.468;2022-11-04T14:45:27;14.70;83.90
32640;DHT22;19049;52.524;11.468;2022-11-04T14:50:55;14.40;85.20
32640;DHT22;19049;52.524;11.468;2022-11-04T14:53:32;14.30;85.00
32640;DHT22;19049;52.524;11.468;2022-11-04T14:56:21;14.10;85.40
32640;DHT22;19049;52.524;11.468;2022-11-04T14:59:04;14.00;85.20
32640;DHT22;19049;52.524;11.468;2022-11-04T15:01:36;13.90;86.20
32640;DHT22;19049;52.524;11.468;2022-11-04T15:06:37;13.70;87.00
32640;DHT22;19049;52.524;11.468;2022-11-04T15:09:02;13.60;87.30
32640;DHT22;19049;52.524;11.468;2022-11-04T15:11:29;13.50;87.50
32640;DHT22;19049;52.524;11.468;2022-11-04T15:14:19;13.50;87.80
32640;DHT22;19049;52.524;11.468;2022-11-04T15:16:47;13.40;88.10
32640;DHT22;19049;52.524;11.468;2022-11-04T15:19:28;13.30;88.40
32640;DHT22;19049;52.524;11.468;2022-11-04T15:21:55;13.20;88.50
32640;DHT22;19049;52.524;11.468;2022-11-04T15:24:22;13.10;88.70
32640;DHT22;19049;52.524;11.468;2022-11-04T15:26:50;13.10;89.00
32640;DHT22;19049;52.524;11.468;2022-11-04T15:29:21;13.00;89.10
32640;DHT22;19049;52.524;11.468;2022-11-04T15:31:53;12.90;89.20
32640;DHT22;19049;52.524;11.468;2022-11-04T15:34:23;12.80;89.30
32640;DHT22;19049;52.524;11.468;2022-11-04T15:36:50;12.70;89.50
32640;DHT22;19049;52.524;11.468;2022-11-04T15:39:23;12.70;89.70
32640;DHT22;19049;52.524;11.468;2022-11-04T15:41:56;12.60;89.90
32640;DHT22;19049;52.524;11.468;2022-11-04T15:44:45;12.50;90.00
32640;DHT22;19049;52.524;11.468;2022-11-04T15:49:45;12.40;90.20
32640;DHT22;19049;52.524;11.468;2022-11-04T15:52:23;12.30;90.30
32640;DHT22;19049;52.524;11.468;2022-11-04T15:54:52;12.30;90.40
32640;DHT22;19049;52.524;11.468;2022-11-04T15:57:21;12.20;90.80
32640;DHT22;19049;52.524;11.468;2022-11-04T16:00:34;12.10;90.50
32640;DHT22;19049;52.524;11.468;2022-11-04T16:02:49;12.10;90.50
32640;DHT22;19049;52.524;11.468;2022-11-04T16:05:37;12.00;90.60
32640;DHT22;19049;52.524;11.468;2022-11-04T16:08:22;11.90;90.90
32640;DHT22;19049;52.524;11.468;2022-11-04T16:10:49;11.80;90.60
32640;DHT22;19049;52.524;11.468;2022-11-04T16:20:55;11.50;90.90
32640;DHT22;19049;52.524;11.468;2022-11-04T16:23:30;11.40;90.90
32640;DHT22;19049;52.524;11.468;2022-11-04T16:26:04;11.30;91.10
32640;DHT22;19049;52.524;11.468;2022-11-04T16:28:34;11.20;91.10
32640;DHT22;19049;52.524;11.468;2022-11-04T16:31:22;11.20;91.10
32640;DHT22;19049;52.524;11.468;2022-11-04T16:33:49;11.10;91.20
32640;DHT22;19049;52.524;11.468;2022-11-04T16:36:15;11.00;91.20
32640;DHT22;19049;52.524;11.468;2022-11-04T16:38:58;10.90;91.20
32640;DHT22;19049;52.524;11.468;2022-11-04T16:41:29;10.80;91.30
32640;DHT22;19049;52.524;11.468;2022-11-04T16:43:56;10.70;91.30
32640;DHT22;19049;52.524;11.468;2022-11-04T16:46:22;10.60;91.30
32640;DHT22;19049;52.524;11.468;2022-11-04T16:48:48;10.50;91.40
32640;DHT22;19049;52.524;11.468;2022-11-04T16:51:22;10.40;91.40
32640;DHT22;19049;52.524;11.468;2022-11-04T16:53:52;10.40;91.50
32640;DHT22;19049;52.524;11.468;2022-11-04T16:56:21;10.30;91.50
32640;DHT22;19049;52.524;11.468;2022-11-04T16:58:47;10.10;91.50
32640;DHT22;19049;52.524;11.468;2022-11-04T17:01:18;10.10;91.60
32640;DHT22;19049;52.524;11.468;2022-11-04T17:03:47;10.00;91.70
32640;DHT22;19049;52.524;11.468;2022-11-04T17:06:14;9.90;91.80
32640;DHT22;19049;52.524;11.468;2022-11-04T17:08:42;9.80;91.90
32640;DHT22;19049;52.524;11.468;2022-11-04T17:11:11;9.80;92.00
32640;DHT22;19049;52.524;11.468;2022-11-04T17:13:37;9.70;92.10
32640;DHT22;19049;52.524;11.468;2022-11-04T17:16:10;9.70;92.20
32640;DHT22;19049;52.524;11.468;2022-11-04T17:18:36;9.60;92.40
32640;DHT22;19049;52.524;11.468;2022-11-04T17:21:05;9.60;92.40
32640;DHT22;19049;52.524;11.468;2022-11-04T17:23:31;9.60;92.50
32640;DHT22;19049;52.524;11.468;2022-11-04T17:25:57;9.60;92.50
32640;DHT22;19049;52.524;11.468;2022-11-04T17:28:23;9.60;92.60
32640;DHT22;19049;52.524;11.468;2022-11-04T17:30:49;9.60;92.70
32640;DHT22;19049;52.524;11.468;2022-11-04T17:33:20;9.60;92.70
32640;DHT22;19049;52.524;11.468;2022-11-04T17:35:47;9.50;92.80
32640;DHT22;19049;52.524;11.468;2022-11-04T17:38:14;9.50;92.80
32640;DHT22;19049;52.524;11.468;2022-11-04T17:40:41;9.60;92.90
32640;DHT22;19049;52.524;11.468;2022-11-04T17:43:25;9.60;93.00
32640;DHT22;19049;52.524;11.468;2022-11-04T17:46:11;9.60;93.10
32640;DHT22;19049;52.524;11.468;2022-11-04T17:48:56;9.60;93.20
32640;DHT22;19049;52.524;11.468;2022-11-04T17:51:22;9.70;93.30
32640;DHT22;19049;52.524;11.468;2022-11-04T17:53:48;9.70;93.30
32640;DHT22;19049;52.524;11.468;2022-11-04T17:56:18;9.70;93.30
32640;DHT22;19049;52.524;11.468;2022-11-04T17:58:52;9.80;93.40
32640;DHT22;19049;52.524;11.468;2022-11-04T18:01:19;9.80;93.40
32640;DHT22;19049;52.524;11.468;2022-11-04T18:03:46;9.80;93.40
32640;DHT22;19049;52.524;11.468;2022-11-04T18:06:12;9.90;93.80
32640;DHT22;19049;52.524;11.468;2022-11-04T18:08:38;9.90;93.50
32640;DHT22;19049;52.524;11.468;2022-11-04T18:11:09;9.90;93.50
32640;DHT22;19049;52.524;11.468;2022-11-04T18:13:47;10.00;93.50